createdAt,value
2018-06-08T00:00:14.843Z,0
2018-06-08T00:01:25.008Z,0
2018-06-08T00:02:35.148Z,0
2018-06-08T00:03:45.288Z,0
2018-06-08T00:04:55.418Z,0
2018-06-08T00:06:05.330Z,0
2018-06-08T00:07:15.250Z,0
2018-06-08T00:08:25.123Z,0
2018-06-08T00:09:35.270Z,0
2018-06-08T00:10:45.399Z,0
2018-06-08T00:11:55.585Z,0
2018-06-08T00:13:05.787Z,0
2018-06-08T00:14:16.032Z,0
2018-06-08T00:15:26.268Z,0
2018-06-08T00:16:36.477Z,0
2018-06-08T00:17:46.670Z,0
2018-06-08T00:18:56.848Z,0
2018-06-08T00:20:07.129Z,0
2018-06-08T00:21:17.399Z,0
2018-06-08T00:22:27.279Z,0
2018-06-08T00:23:37.277Z,0
2018-06-08T00:24:47.452Z,0
2018-06-08T00:25:57.580Z,0
2018-06-08T00:27:07.998Z,0
2018-06-08T00:28:18.192Z,0
2018-06-08T00:29:28.373Z,0
2018-06-08T00:30:38.556Z,0
2018-06-08T00:31:48.723Z,0
2018-06-08T00:32:58.989Z,0
2018-06-08T00:34:09.158Z,0
2018-06-08T00:35:19.286Z,0
2018-06-08T00:36:29.433Z,0
2018-06-08T00:37:39.573Z,0
2018-06-08T00:38:49.781Z,0
2018-06-08T00:39:59.934Z,0
2018-06-08T00:41:10.178Z,0
2018-06-08T00:42:20.309Z,0
2018-06-08T00:43:30.481Z,0
2018-06-08T00:44:40.714Z,0
2018-06-08T00:45:50.895Z,0
2018-06-08T00:47:01.022Z,0
2018-06-08T00:48:11.191Z,0
2018-06-08T00:49:21.429Z,0
2018-06-08T00:50:31.563Z,0
2018-06-08T00:51:41.746Z,0
2018-06-08T00:52:51.890Z,0
2018-06-08T00:54:02.080Z,0
2018-06-08T00:55:12.243Z,0
2018-06-08T00:56:22.472Z,0
2018-06-08T00:57:32.640Z,0
2018-06-08T00:58:42.807Z,0
2018-06-08T00:59:52.973Z,0
2018-06-08T01:01:03.125Z,0
2018-06-08T01:02:13.292Z,0
2018-06-08T01:03:23.433Z,0
2018-06-08T01:04:33.342Z,0
2018-06-08T01:05:43.496Z,0
2018-06-08T01:06:53.623Z,0
2018-06-08T01:08:03.770Z,0
2018-06-08T01:09:13.904Z,0
2018-06-08T01:10:24.057Z,0
2018-06-08T01:11:34.440Z,0
2018-06-08T01:12:44.618Z,0
2018-06-08T01:13:54.908Z,0
2018-06-08T01:15:05.068Z,0
2018-06-08T01:16:15.219Z,0
2018-06-08T01:17:25.445Z,0
2018-06-08T01:18:35.597Z,0
2018-06-08T01:19:45.490Z,0
2018-06-08T01:20:55.422Z,0
2018-06-08T01:22:05.560Z,0
2018-06-08T01:23:15.695Z,0
2018-06-08T01:24:25.861Z,0
2018-06-08T01:25:35.999Z,0
2018-06-08T01:26:46.147Z,0
2018-06-08T01:27:56.317Z,0
2018-06-08T01:29:06.457Z,0
2018-06-08T01:30:16.585Z,0
2018-06-08T01:31:26.746Z,0
2018-06-08T01:32:36.916Z,0
2018-06-08T01:33:47.297Z,0
2018-06-08T01:34:57.473Z,0
2018-06-08T01:36:07.646Z,0
2018-06-08T01:37:17.928Z,0
2018-06-08T01:38:28.144Z,0
2018-06-08T01:39:38.287Z,0
2018-06-08T01:40:48.637Z,0
2018-06-08T01:41:58.767Z,0
2018-06-08T01:43:08.926Z,0
2018-06-08T01:44:19.219Z,0
2018-06-08T01:45:29.092Z,0
2018-06-08T01:46:39.231Z,0
2018-06-08T01:47:49.397Z,0
2018-06-08T01:48:59.617Z,0
2018-06-08T01:50:09.823Z,0
2018-06-08T01:51:20.251Z,0
2018-06-08T01:52:30.381Z,0
2018-06-08T01:53:40.560Z,0
2018-06-08T01:54:50.684Z,0
2018-06-08T01:56:00.902Z,0
2018-06-08T01:57:11.055Z,0
2018-06-08T01:58:21.311Z,0
2018-06-08T01:59:31.532Z,0
2018-06-08T02:00:41.661Z,0
2018-06-08T02:01:51.555Z,0
2018-06-08T02:03:01.711Z,0
2018-06-08T02:04:12.038Z,0
2018-06-08T02:05:22.300Z,0
2018-06-08T02:06:32.503Z,0
2018-06-08T02:07:42.680Z,0
2018-06-08T02:08:52.838Z,0
2018-06-08T02:10:03.001Z,4
2018-06-08T02:11:13.151Z,4
2018-06-08T02:12:23.076Z,0
2018-06-08T02:13:33.263Z,0
2018-06-08T02:14:43.469Z,4
2018-06-08T02:15:53.652Z,4
2018-06-08T02:17:03.792Z,0
2018-06-08T02:18:13.914Z,4
2018-06-08T02:19:24.047Z,4
2018-06-08T02:20:34.168Z,4
2018-06-08T02:21:44.336Z,4
2018-06-08T02:22:54.683Z,4
2018-06-08T02:24:04.818Z,8
2018-06-08T02:25:15.047Z,8
2018-06-08T02:26:25.200Z,8
2018-06-08T02:27:35.413Z,12
2018-06-08T02:28:45.547Z,12
2018-06-08T02:29:55.698Z,12
2018-06-08T02:31:05.826Z,16
2018-06-08T02:32:15.963Z,20
2018-06-08T02:33:26.110Z,20
2018-06-08T02:34:36.288Z,24
2018-06-08T02:35:46.186Z,28
2018-06-08T02:36:56.328Z,32
2018-06-08T02:38:06.564Z,36
2018-06-08T02:39:16.739Z,44
2018-06-08T02:40:26.902Z,48
2018-06-08T02:41:37.139Z,56
2018-06-08T02:42:47.431Z,68
2018-06-08T02:43:57.323Z,72
2018-06-08T02:45:07.460Z,84
2018-06-08T02:46:17.613Z,92
2018-06-08T02:47:27.838Z,104
2018-06-08T02:48:38.017Z,116
2018-06-08T02:49:48.275Z,128
2018-06-08T02:50:58.486Z,140
2018-06-08T02:52:08.752Z,152
2018-06-08T02:53:18.894Z,160
2018-06-08T02:54:29.053Z,176
2018-06-08T02:55:39.334Z,188
2018-06-08T02:56:49.519Z,204
2018-06-08T02:57:59.714Z,216
2018-06-08T02:59:09.854Z,236
2018-06-08T03:00:19.754Z,252
2018-06-08T03:01:30.013Z,272
2018-06-08T03:02:40.191Z,296
2018-06-08T03:03:50.460Z,320
2018-06-08T03:05:00.593Z,344
2018-06-08T03:06:10.771Z,372
2018-06-08T03:07:20.780Z,396
2018-06-08T03:08:30.928Z,420
2018-06-08T03:09:41.071Z,448
2018-06-08T03:10:51.222Z,480
2018-06-08T03:12:01.571Z,504
2018-06-08T03:13:11.711Z,532
2018-06-08T03:14:21.861Z,560
2018-06-08T03:15:31.992Z,592
2018-06-08T03:16:42.133Z,624
2018-06-08T03:17:52.255Z,656
2018-06-08T03:19:02.447Z,688
2018-06-08T03:20:12.666Z,720
2018-06-08T03:21:22.787Z,756
2018-06-08T03:22:32.992Z,788
2018-06-08T03:23:43.262Z,824
2018-06-08T03:24:53.419Z,856
2018-06-08T03:26:03.852Z,896
2018-06-08T03:27:13.979Z,932
2018-06-08T03:28:24.199Z,968
2018-06-08T03:29:34.392Z,1004
2018-06-08T03:30:44.199Z,1040
2018-06-08T03:31:53.826Z,1076
2018-06-08T03:33:04.061Z,1108
2018-06-08T03:34:14.350Z,1144
2018-06-08T03:35:24.236Z,1180
2018-06-08T03:36:34.369Z,1216
2018-06-08T03:37:44.524Z,1252
2018-06-08T03:38:54.759Z,1288
2018-06-08T03:40:04.941Z,1320
2018-06-08T03:41:15.100Z,1352
2018-06-08T03:42:25.249Z,1380
2018-06-08T03:43:35.437Z,1404
2018-06-08T03:44:45.645Z,1428
2018-06-08T03:45:55.912Z,1452
2018-06-08T03:47:06.054Z,1476
2018-06-08T03:48:16.246Z,1500
2018-06-08T03:49:26.200Z,1524
2018-06-08T03:50:36.387Z,1552
2018-06-08T03:51:46.757Z,1576
2018-06-08T03:52:56.668Z,1604
2018-06-08T03:54:06.786Z,1636
2018-06-08T03:55:16.988Z,1668
2018-06-08T03:56:27.122Z,1700
2018-06-08T03:57:37.274Z,1740
2018-06-08T03:58:47.573Z,1780
2018-06-08T03:59:57.731Z,1824
2018-06-08T04:01:07.890Z,1868
2018-06-08T04:02:18.046Z,1904
2018-06-08T04:03:28.184Z,1940
2018-06-08T04:04:38.325Z,1976
2018-06-08T04:05:48.539Z,2012
2018-06-08T04:06:58.403Z,2048
2018-06-08T04:08:08.777Z,2084
2018-06-08T04:09:18.941Z,2116
2018-06-08T04:10:29.133Z,2152
2018-06-08T04:11:39.287Z,2184
2018-06-08T04:12:49.426Z,2212
2018-06-08T04:13:59.590Z,2244
2018-06-08T04:15:09.750Z,2272
2018-06-08T04:16:19.968Z,2300
2018-06-08T04:17:30.099Z,2324
2018-06-08T04:18:40.250Z,2340
2018-06-08T04:19:50.490Z,2356
2018-06-08T04:21:00.646Z,2372
2018-06-08T04:22:10.954Z,2384
2018-06-08T04:23:21.112Z,2392
2018-06-08T04:24:31.339Z,2396
2018-06-08T04:25:41.504Z,2404
2018-06-08T04:26:51.771Z,2408
2018-06-08T04:28:01.671Z,2408
2018-06-08T04:29:11.801Z,2412
2018-06-08T04:30:21.745Z,2396
2018-06-08T04:31:31.942Z,2388
2018-06-08T04:32:42.130Z,2388
2018-06-08T04:33:52.340Z,2400
2018-06-08T04:35:02.554Z,2416
2018-06-08T04:36:12.699Z,2428
2018-06-08T04:37:22.888Z,2432
2018-06-08T04:38:32.675Z,2448
2018-06-08T04:39:42.557Z,2468
2018-06-08T04:40:52.716Z,2480
2018-06-08T04:42:02.856Z,2492
2018-06-08T04:43:13.034Z,2528
2018-06-08T04:44:23.202Z,2568
2018-06-08T04:45:33.356Z,2592
2018-06-08T04:46:43.235Z,2628
2018-06-08T04:47:53.375Z,2668
2018-06-08T04:49:03.614Z,2720
2018-06-08T04:50:13.874Z,2772
2018-06-08T04:51:24.052Z,2820
2018-06-08T04:52:34.279Z,2872
2018-06-08T04:53:44.513Z,2892
2018-06-08T04:54:54.663Z,2932
2018-06-08T04:56:04.849Z,2984
2018-06-08T04:57:15.129Z,3040
2018-06-08T04:58:25.391Z,3080
2018-06-08T04:59:35.647Z,3116
2018-06-08T05:00:45.899Z,3148
2018-06-08T05:01:56.084Z,3196
2018-06-08T05:03:06.342Z,3240
2018-06-08T05:04:16.571Z,3280
2018-06-08T05:05:26.816Z,3332
2018-06-08T05:06:36.993Z,3368
2018-06-08T05:07:47.135Z,3424
2018-06-08T05:08:57.342Z,3464
2018-06-08T05:10:07.586Z,3508
2018-06-08T05:11:17.743Z,3552
2018-06-08T05:12:27.922Z,3600
2018-06-08T05:13:38.074Z,3636
2018-06-08T05:14:48.205Z,3692
2018-06-08T05:15:58.347Z,3744
2018-06-08T05:17:08.510Z,3796
2018-06-08T05:18:19.664Z,3852
2018-06-08T05:19:29.839Z,3892
2018-06-08T05:20:40.082Z,3956
2018-06-08T05:21:50.272Z,4000
2018-06-08T05:23:00.420Z,4072
2018-06-08T05:24:10.566Z,4116
2018-06-08T05:25:21.040Z,4164
2018-06-08T05:26:30.928Z,4212
2018-06-08T05:27:41.060Z,4264
2018-06-08T05:28:51.184Z,4304
2018-06-08T05:30:01.333Z,4336
2018-06-08T05:31:11.547Z,4368
2018-06-08T05:32:21.798Z,4392
2018-06-08T05:33:32.076Z,4424
2018-06-08T05:34:42.329Z,4460
2018-06-08T05:35:52.566Z,4492
2018-06-08T05:37:02.827Z,4528
2018-06-08T05:38:12.709Z,4572
2018-06-08T05:39:22.835Z,4620
2018-06-08T05:40:32.978Z,4664
2018-06-08T05:41:43.167Z,4704
2018-06-08T05:42:53.384Z,4756
2018-06-08T05:44:03.561Z,4804
2018-06-08T05:45:13.707Z,4844
2018-06-08T05:46:23.964Z,4888
2018-06-08T05:47:34.187Z,4920
2018-06-08T05:48:44.389Z,4948
2018-06-08T05:49:54.515Z,4968
2018-06-08T05:51:04.166Z,4992
2018-06-08T05:52:14.334Z,5012
2018-06-08T05:53:24.523Z,5032
2018-06-08T05:54:34.485Z,5056
2018-06-08T05:55:44.617Z,5080
2018-06-08T05:56:54.762Z,5100
2018-06-08T05:58:04.956Z,5132
2018-06-08T05:59:15.134Z,5152
2018-06-08T06:00:25.276Z,5176
2018-06-08T06:01:35.466Z,5196
2018-06-08T06:02:45.634Z,5224
2018-06-08T06:03:55.821Z,5248
2018-06-08T06:05:06.043Z,5276
2018-06-08T06:06:16.247Z,5308
2018-06-08T06:07:27.477Z,5344
2018-06-08T06:08:37.455Z,5384
2018-06-08T06:09:47.626Z,5420
2018-06-08T06:10:57.800Z,5460
2018-06-08T06:12:07.600Z,5488
2018-06-08T06:13:17.612Z,5528
2018-06-08T06:14:27.938Z,5568
2018-06-08T06:15:37.744Z,5608
2018-06-08T06:16:47.899Z,5644
2018-06-08T06:17:58.041Z,5668
2018-06-08T06:19:08.240Z,5684
2018-06-08T06:20:18.232Z,5708
2018-06-08T06:21:28.390Z,5728
2018-06-08T06:22:38.539Z,5764
2018-06-08T06:23:48.763Z,5804
2018-06-08T06:24:58.976Z,5848
2018-06-08T06:26:09.184Z,5900
2018-06-08T06:27:19.348Z,5948
2018-06-08T06:28:29.547Z,5988
2018-06-08T06:30:53.439Z,6064
2018-06-08T06:32:08.678Z,6088
2018-06-08T06:33:18.882Z,6108
2018-06-08T06:34:29.038Z,6128
2018-06-08T06:35:39.231Z,6156
2018-06-08T06:36:49.397Z,6180
2018-06-08T06:38:00.146Z,6200
2018-06-08T06:43:04.632Z,6320
2018-06-08T06:45:30.970Z,6416
2018-06-08T06:46:41.161Z,6468
2018-06-08T06:47:51.050Z,6512
2018-06-08T06:49:01.237Z,6564
2018-06-08T06:50:11.617Z,6616
2018-06-08T06:51:21.828Z,6676
2018-06-08T06:52:31.976Z,6732
2018-06-08T06:53:42.261Z,6784
2018-06-08T06:54:52.511Z,6836
2018-06-08T06:56:02.730Z,6896
2018-06-08T06:57:12.905Z,6928
2018-06-08T06:58:23.161Z,6948
2018-06-08T06:59:33.345Z,6980
2018-06-08T07:00:43.634Z,7008
2018-06-08T07:01:53.823Z,7036
2018-06-08T07:03:04.036Z,7076
2018-06-08T07:04:13.927Z,7116
2018-06-08T07:05:24.159Z,7164
2018-06-08T07:06:34.078Z,7212
2018-06-08T07:07:44.352Z,7256
2018-06-08T07:08:54.543Z,7284
2018-06-08T07:10:04.811Z,7304
2018-06-08T07:11:14.983Z,7328
2018-06-08T07:12:25.118Z,7340
2018-06-08T07:13:35.266Z,7376
2018-06-08T07:14:45.420Z,7428
2018-06-08T07:15:55.626Z,7488
2018-06-08T07:17:05.857Z,7548
2018-06-08T07:18:16.011Z,7600
2018-06-08T07:19:26.165Z,7644
2018-06-08T07:20:36.371Z,7676
2018-06-08T07:21:46.664Z,7696
2018-06-08T07:22:56.878Z,7716
2018-06-08T07:24:07.198Z,7740
2018-06-08T07:25:17.426Z,7768
2018-06-08T07:26:27.570Z,7804
2018-06-08T07:27:37.764Z,7856
2018-06-08T07:28:47.959Z,7900
2018-06-08T07:29:58.160Z,7956
2018-06-08T07:31:08.371Z,7984
2018-06-08T07:32:18.315Z,8036
2018-06-08T07:33:28.508Z,8100
2018-06-08T07:34:38.640Z,8152
2018-06-08T07:35:48.833Z,8192
2018-06-08T07:36:59.033Z,8236
2018-06-08T07:38:09.206Z,8288
2018-06-08T07:39:19.361Z,8332
2018-06-08T07:40:29.508Z,8392
2018-06-08T07:41:39.719Z,8468
2018-06-08T07:42:49.926Z,8544
2018-06-08T07:44:00.094Z,8628
2018-06-08T07:45:10.267Z,8708
2018-06-08T07:46:20.441Z,8776
2018-06-08T07:47:30.323Z,8848
2018-06-08T07:48:40.512Z,8896
2018-06-08T07:49:50.666Z,8956
2018-06-08T07:51:00.815Z,9008
2018-06-08T07:52:10.985Z,9060
2018-06-08T07:53:20.864Z,9112
2018-06-08T07:54:31.016Z,9172
2018-06-08T07:55:41.202Z,9212
2018-06-08T07:56:51.406Z,9260
2018-06-08T07:58:01.573Z,9292
2018-06-08T07:59:11.760Z,9308
2018-06-08T08:00:22.003Z,9384
2018-06-08T08:01:32.248Z,9428
2018-06-08T08:02:42.429Z,9480
2018-06-08T08:03:52.639Z,9544
2018-06-08T08:05:03.091Z,9608
2018-06-08T08:06:13.252Z,9700
2018-06-08T08:07:23.485Z,9820
2018-06-08T08:08:33.625Z,9948
2018-06-08T08:09:43.867Z,10108
2018-06-08T08:10:54.106Z,10288
2018-06-08T08:12:04.416Z,10496
2018-06-08T08:13:14.594Z,10664
2018-06-08T08:14:24.784Z,10828
2018-06-08T08:15:35.002Z,10976
2018-06-08T08:16:45.141Z,11104
2018-06-08T08:17:55.033Z,11248
2018-06-08T08:19:05.230Z,11388
2018-06-08T08:20:15.421Z,11500
2018-06-08T08:21:25.602Z,11596
2018-06-08T08:22:35.812Z,11660
2018-06-08T08:23:45.972Z,11716
2018-06-08T08:24:56.157Z,11792
2018-06-08T08:26:06.313Z,11896
2018-06-08T08:27:16.589Z,11996
2018-06-08T08:28:26.802Z,12120
2018-06-08T08:29:37.024Z,12180
2018-06-08T08:30:47.179Z,12296
2018-06-08T08:31:57.349Z,12412
2018-06-08T08:33:07.766Z,12524
2018-06-08T08:34:18.029Z,12676
2018-06-08T08:35:28.247Z,12908
2018-06-08T08:36:38.398Z,13192
2018-06-08T08:37:48.568Z,13544
2018-06-08T08:38:58.831Z,13932
2018-06-08T08:40:09.053Z,14340
2018-06-08T08:41:19.196Z,16032
2018-06-08T08:42:29.553Z,34176
2018-06-08T08:43:39.776Z,55776
2018-06-08T08:44:49.965Z,55616
2018-06-08T08:46:00.173Z,54560
2018-06-08T08:47:10.391Z,57280
2018-06-08T08:48:20.602Z,47456
2018-06-08T08:49:30.257Z,30208
2018-06-08T08:50:40.478Z,18112
2018-06-08T08:51:51.007Z,15600
2018-06-08T08:53:01.152Z,15616
2018-06-08T08:54:11.326Z,15796
2018-06-08T08:55:21.545Z,15824
2018-06-08T08:56:31.725Z,16288
2018-06-08T08:57:41.910Z,20320
2018-06-08T08:58:52.148Z,37248
2018-06-08T09:00:03.311Z,50016
2018-06-08T09:01:13.527Z,53344
2018-06-08T09:02:24.290Z,58528
2018-06-08T09:03:34.459Z,56000
2018-06-08T09:04:44.648Z,45376
2018-06-08T09:05:54.841Z,44992
2018-06-08T09:07:05.066Z,54496
2018-06-08T09:08:16.202Z,54368
2018-06-08T09:09:26.577Z,51680
2018-06-08T09:10:36.753Z,51776
2018-06-08T09:11:46.920Z,45920
2018-06-08T09:12:57.179Z,46144
2018-06-08T09:14:07.362Z,56928
2018-06-08T09:15:17.839Z,66624
2018-06-08T09:16:27.992Z,63328
2018-06-08T09:17:38.211Z,67232
2018-06-08T09:18:48.404Z,76416
2018-06-08T09:19:58.619Z,72640
2018-06-08T09:21:08.840Z,62112
2018-06-08T09:22:19.054Z,54464
2018-06-08T09:23:29.275Z,62560
2018-06-08T09:25:56.729Z,71616
2018-06-08T09:27:06.885Z,66752
2018-06-08T09:28:21.010Z,62688
2018-06-08T09:29:30.919Z,65536
2018-06-08T09:30:41.161Z,71552
2018-06-08T09:31:51.319Z,71872
2018-06-08T09:33:01.523Z,67008
2018-06-08T09:34:11.702Z,60480
2018-06-08T09:35:24.266Z,68864
2018-06-08T09:36:34.445Z,78528
2018-06-08T09:37:44.628Z,73312
2018-06-08T09:38:54.824Z,67648
2018-06-08T09:40:05.206Z,72288
2018-06-08T09:41:15.354Z,75392
2018-06-08T09:42:25.627Z,71904
2018-06-08T09:43:35.814Z,59840
2018-06-08T09:44:46.067Z,57824
2018-06-08T09:45:56.303Z,66752
2018-06-08T09:47:07.824Z,69984
2018-06-08T09:48:18.087Z,68896
2018-06-08T09:49:28.313Z,73888
2018-06-08T09:50:38.212Z,76544
2018-06-08T09:51:48.397Z,72672
2018-06-08T09:52:58.583Z,71040
2018-06-08T09:54:08.764Z,70592
2018-06-08T09:55:18.677Z,67424
2018-06-08T09:56:28.837Z,66816
2018-06-08T09:57:39.025Z,73120
2018-06-08T09:58:49.251Z,80032
2018-06-08T09:59:59.409Z,85728
2018-06-08T10:01:09.585Z,84352
2018-06-08T10:02:19.803Z,73536
2018-06-08T10:03:29.999Z,72192
2018-06-08T10:04:40.209Z,82976
2018-06-08T10:05:50.446Z,75392
2018-06-08T10:07:00.604Z,59424
2018-06-08T10:08:10.784Z,70016
2018-06-08T10:09:21.077Z,91008
2018-06-08T10:10:31.312Z,88512
2018-06-08T10:11:41.589Z,81504
2018-06-08T10:12:51.781Z,84608
2018-06-08T10:14:02.017Z,84384
2018-06-08T10:15:12.218Z,76608
2018-06-08T10:16:22.482Z,78240
2018-06-08T10:17:32.711Z,86560
2018-06-08T10:18:42.877Z,87776
2018-06-08T10:19:53.115Z,80896
2018-06-08T10:21:03.052Z,76928
2018-06-08T10:22:13.259Z,82080
2018-06-08T10:23:23.425Z,88288
2018-06-08T10:24:33.657Z,88640
2018-06-08T10:25:43.861Z,92256
2018-06-08T10:26:54.106Z,89472
2018-06-08T10:28:04.022Z,85248
2018-06-08T10:29:14.219Z,86880
2018-06-08T10:30:24.425Z,90048
2018-06-08T10:31:34.608Z,87584
2018-06-08T10:32:44.798Z,98592
2018-06-08T10:33:55.094Z,116256
2018-06-08T10:35:05.373Z,112672
2018-06-08T10:36:15.591Z,91840
2018-06-08T10:37:25.743Z,77568
2018-06-08T10:38:35.719Z,75680
2018-06-08T10:39:45.931Z,75744
2018-06-08T10:40:56.178Z,73088
2018-06-08T10:42:06.397Z,71936
2018-06-08T10:43:16.596Z,80256
2018-06-08T10:44:26.829Z,92000
2018-06-08T10:45:37.028Z,93120
2018-06-08T10:46:47.378Z,88768
2018-06-08T10:47:57.563Z,88832
2018-06-08T10:49:07.753Z,95296
2018-06-08T10:50:17.913Z,102592
2018-06-08T10:51:28.196Z,106112
2018-06-08T10:52:38.412Z,111840
2018-06-08T10:53:48.620Z,112960
2018-06-08T10:54:58.851Z,97120
2018-06-08T10:56:09.013Z,82592
2018-06-08T10:57:19.214Z,92288
2018-06-08T10:58:29.386Z,100320
2018-06-08T10:59:39.572Z,94848
2018-06-08T11:00:49.806Z,92416
2018-06-08T11:02:00.116Z,94976
2018-06-08T11:03:10.402Z,85696
2018-06-08T11:04:20.597Z,82624
2018-06-08T11:05:30.781Z,90272
2018-06-08T11:06:40.967Z,90880
2018-06-08T11:07:51.213Z,82464
2018-06-08T11:09:01.396Z,88160
2018-06-08T11:10:11.593Z,93152
2018-06-08T11:11:21.916Z,83680
2018-06-08T11:12:32.224Z,77664
2018-06-08T11:13:42.395Z,91840
2018-06-08T11:14:52.618Z,105888
2018-06-08T11:16:02.785Z,94688
2018-06-08T11:17:12.989Z,70720
2018-06-08T11:18:23.181Z,70112
2018-06-08T11:19:33.395Z,90880
2018-06-08T11:20:43.621Z,105856
2018-06-08T11:21:53.942Z,102144
2018-06-08T11:23:03.890Z,98496
2018-06-08T11:24:14.093Z,100352
2018-06-08T11:25:24.282Z,101472
2018-06-08T11:26:34.462Z,94400
2018-06-08T11:27:44.680Z,87968
2018-06-08T11:28:54.862Z,84160
2018-06-08T11:30:05.051Z,86688
2018-06-08T11:31:15.271Z,87904
2018-06-08T11:32:25.481Z,74208
2018-06-08T11:33:35.673Z,63488
2018-06-08T11:34:45.898Z,76032
2018-06-08T11:35:56.102Z,87072
2018-06-08T11:37:06.310Z,80416
2018-06-08T11:38:16.520Z,79520
2018-06-08T11:39:27.030Z,96352
2018-06-08T11:40:37.406Z,102592
2018-06-08T11:41:47.669Z,88928
2018-06-08T11:42:57.872Z,74240
2018-06-08T11:44:08.134Z,76992
2018-06-08T11:45:18.428Z,88416
2018-06-08T11:46:28.611Z,86528
2018-06-08T11:47:38.855Z,77888
2018-06-08T11:48:49.118Z,74208
2018-06-08T11:49:59.336Z,86208
2018-06-08T11:51:09.527Z,93312
2018-06-08T11:52:19.691Z,87232
2018-06-08T11:53:29.917Z,73792
2018-06-08T11:54:40.189Z,71488
2018-06-08T11:55:50.391Z,75904
2018-06-08T11:57:00.590Z,74464
2018-06-08T11:58:10.801Z,68480
2018-06-08T11:59:21.125Z,69248
2018-06-08T12:00:31.324Z,74784
2018-06-08T12:01:41.521Z,72672
2018-06-08T12:02:51.771Z,66912
2018-06-08T12:04:02.028Z,64992
2018-06-08T12:05:12.186Z,68928
2018-06-08T12:06:22.439Z,63712
2018-06-08T12:07:32.637Z,59712
2018-06-08T12:08:42.840Z,70080
2018-06-08T12:09:53.047Z,88640
2018-06-08T12:11:03.230Z,90848
2018-06-08T12:12:13.436Z,79680
2018-06-08T12:13:23.671Z,64384
2018-06-08T12:14:33.908Z,58944
2018-06-08T12:15:44.132Z,61728
2018-06-08T12:16:54.431Z,64704
2018-06-08T12:18:04.697Z,70272
2018-06-08T12:19:14.923Z,77760
2018-06-08T12:20:25.142Z,84384
2018-06-08T12:21:35.353Z,84736
2018-06-08T12:22:45.285Z,78528
2018-06-08T12:23:55.594Z,74560
2018-06-08T12:25:05.906Z,72576
2018-06-08T12:26:16.114Z,73792
2018-06-08T12:27:26.123Z,80768
2018-06-08T12:28:36.368Z,87456
2018-06-08T12:29:46.606Z,86432
2018-06-08T12:30:56.507Z,77760
2018-06-08T12:32:06.774Z,67904
2018-06-08T12:33:16.433Z,69664
2018-06-08T12:34:26.711Z,76064
2018-06-08T12:35:36.937Z,80384
2018-06-08T12:36:47.147Z,78208
2018-06-08T12:37:57.501Z,74496
2018-06-08T12:39:07.689Z,77792
2018-06-08T12:40:17.904Z,91552
2018-06-08T12:41:28.149Z,94080
2018-06-08T12:42:38.322Z,84384
2018-06-08T12:43:48.495Z,76352
2018-06-08T12:44:59.731Z,70432
2018-06-08T12:46:09.955Z,68448
2018-06-08T12:47:20.123Z,71136
2018-06-08T12:48:30.395Z,70528
2018-06-08T12:49:40.609Z,71296
2018-06-08T12:50:50.769Z,73984
2018-06-08T12:52:01.108Z,75488
2018-06-08T12:53:10.988Z,68608
2018-06-08T12:54:21.263Z,65984
2018-06-08T12:55:31.415Z,73600
2018-06-08T12:56:41.701Z,84000
2018-06-08T12:57:51.905Z,79872
2018-06-08T12:59:02.100Z,62400
2018-06-08T13:00:12.330Z,57056
2018-06-08T13:01:22.508Z,72480
2018-06-08T13:02:32.681Z,82400
2018-06-08T13:03:42.925Z,71680
2018-06-08T13:04:53.153Z,58016
2018-06-08T13:06:03.348Z,60384
2018-06-08T13:07:13.547Z,70336
2018-06-08T13:08:23.736Z,77120
2018-06-08T13:09:34.188Z,70432
2018-06-08T13:10:44.465Z,62048
2018-06-08T13:11:54.779Z,61312
2018-06-08T13:13:04.991Z,65184
2018-06-08T13:14:15.324Z,69600
2018-06-08T13:15:25.541Z,72064
2018-06-08T13:16:35.706Z,75744
2018-06-08T13:17:45.927Z,73472
2018-06-08T13:18:56.155Z,64320
2018-06-08T13:20:06.411Z,61856
2018-06-08T13:21:16.690Z,62784
2018-06-08T13:22:26.876Z,66720
2018-06-08T13:23:36.589Z,67328
2018-06-08T13:24:46.785Z,65056
2018-06-08T13:25:57.003Z,61536
2018-06-08T13:27:06.938Z,57728
2018-06-08T13:28:17.156Z,58080
2018-06-08T13:29:27.343Z,62976
2018-06-08T13:30:37.044Z,23904
2018-06-08T13:31:47.051Z,22816
2018-06-08T13:32:56.983Z,22656
2018-06-08T13:34:07.116Z,55648
2018-06-08T13:35:17.300Z,56704
2018-06-08T13:36:27.501Z,57952
2018-06-08T13:37:37.703Z,52288
2018-06-08T13:38:47.894Z,59200
2018-06-08T13:39:57.816Z,52000
2018-06-08T13:41:08.009Z,46176
2018-06-08T13:42:18.197Z,47328
2018-06-08T13:43:28.391Z,54272
2018-06-08T13:44:38.615Z,57184
2018-06-08T13:45:48.815Z,53696
2018-06-08T13:46:59.061Z,45632
2018-06-08T13:48:09.269Z,42880
2018-06-08T13:49:19.443Z,49184
2018-06-08T13:50:29.646Z,55936
2018-06-08T13:51:39.486Z,54400
2018-06-08T13:52:49.695Z,45472
2018-06-08T13:53:59.909Z,43104
2018-06-08T13:55:10.104Z,45568
2018-06-08T13:56:20.315Z,46848
2018-06-08T13:57:30.277Z,48768
2018-06-08T13:58:40.235Z,49664
2018-06-08T13:59:50.435Z,47296
2018-06-08T14:01:00.240Z,47744
2018-06-08T14:02:10.691Z,48928
2018-06-08T14:03:20.950Z,18240
2018-06-08T14:04:31.213Z,15360
2018-06-08T14:05:41.388Z,14324
2018-06-08T14:06:51.581Z,13456
2018-06-08T14:08:01.987Z,12520
2018-06-08T14:09:12.301Z,11872
2018-06-08T14:10:22.532Z,11380
2018-06-08T14:11:32.754Z,11196
2018-06-08T14:12:42.986Z,11224
2018-06-08T14:13:52.787Z,11240
2018-06-08T14:15:03.038Z,11396
2018-06-08T14:16:13.222Z,11640
2018-06-08T14:17:23.505Z,12060
2018-06-08T14:18:33.747Z,12612
2018-06-08T14:19:43.946Z,13200
2018-06-08T14:20:54.301Z,14272
2018-06-08T14:22:04.544Z,35040
2018-06-08T14:23:14.766Z,32832
2018-06-08T14:24:24.676Z,37344
2018-06-08T14:25:34.994Z,38208
2018-06-08T14:26:45.147Z,37216
2018-06-08T14:27:55.332Z,39584
2018-06-08T14:29:05.533Z,45184
2018-06-08T14:30:15.748Z,46592
2018-06-08T14:31:26.057Z,44960
2018-06-08T14:32:36.036Z,40896
2018-06-08T14:33:46.345Z,44000
2018-06-08T14:34:56.709Z,50976
2018-06-08T14:36:06.659Z,52096
2018-06-08T14:37:16.862Z,50016
2018-06-08T14:38:27.213Z,47328
2018-06-08T14:39:37.457Z,42528
2018-06-08T14:40:47.796Z,34176
2018-06-08T14:41:58.163Z,44160
2018-06-08T14:43:08.353Z,48192
2018-06-08T14:44:18.548Z,48800
2018-06-08T14:45:28.781Z,41696
2018-06-08T14:46:38.951Z,28128
2018-06-08T14:47:49.132Z,13160
2018-06-08T14:48:59.303Z,12468
2018-06-08T14:50:09.523Z,12156
2018-06-08T14:51:19.761Z,12128
2018-06-08T14:52:29.938Z,12376
2018-06-08T14:53:40.354Z,12756
2018-06-08T14:54:51.538Z,12988
2018-06-08T14:56:01.760Z,13256
2018-06-08T14:57:11.827Z,33024
2018-06-08T14:58:22.074Z,37760
2018-06-08T14:59:32.308Z,35424
2018-06-08T15:00:42.620Z,33856
2018-06-08T15:01:52.837Z,22720
2018-06-08T15:03:03.024Z,17440
2018-06-08T15:04:13.259Z,15808
2018-06-08T15:05:23.537Z,15392
2018-06-08T15:06:33.709Z,15104
2018-06-08T15:07:43.908Z,14496
2018-06-08T15:08:54.099Z,13868
2018-06-08T15:10:04.301Z,13328
2018-06-08T15:11:14.390Z,12928
2018-06-08T15:12:24.738Z,12684
2018-06-08T15:13:34.928Z,12428
2018-06-08T15:14:44.879Z,12260
2018-06-08T15:15:54.847Z,12056
2018-06-08T15:17:05.088Z,11960
2018-06-08T15:18:15.300Z,11756
2018-06-08T15:19:25.559Z,11660
2018-06-08T15:20:35.865Z,11508
2018-06-08T15:21:46.079Z,11384
2018-06-08T15:22:56.268Z,11384
2018-06-08T15:24:06.521Z,11512
2018-06-08T15:25:16.682Z,11532
2018-06-08T15:26:26.661Z,11468
2018-06-08T15:27:36.844Z,11304
2018-06-08T15:28:47.026Z,11176
2018-06-08T15:29:57.216Z,10844
2018-06-08T15:31:07.465Z,10544
2018-06-08T15:32:17.669Z,10128
2018-06-08T15:33:27.864Z,9952
2018-06-08T15:34:38.159Z,9720
2018-06-08T15:35:48.643Z,9476
2018-06-08T15:36:58.606Z,9232
2018-06-08T15:38:08.796Z,9220
2018-06-08T15:39:19.956Z,9096
2018-06-08T15:40:29.745Z,9220
2018-06-08T15:41:40.086Z,9264
2018-06-08T15:42:50.272Z,9268
2018-06-08T15:44:00.438Z,9224